Weather observations for the past three days for
Hobbs / Lea County
Imperial (Metric)
Date Time (mdt) Wind (mph) Vis. (mi.) Weather Sky Cond. Temperature (ºF) Relative Humidity Wind Chill (°F) Heat Index (°F) Pressure Precipitation (in)
Air Dwpt 6 hour altimeter (in) sea level (mb) 1 hr 3 hr 6 hr
Max. Min.
05 11:50 Calm 10.00 Fair CLR 93.2 55.4 28% 91 30.04 0.0
05 10:50 Vrbl 6 10.00 Fair CLR 89.6 59 36% 89 30.05 0.0
05 09:50 S 6 10.00 Fair CLR 84.2 60.8 45% 84 30.06 0.0
05 08:50 S 12 10.00 Fair CLR 80.6 62.6 54% 82 30.06 0.0
05 07:50 SE 8 10.00 Fair CLR 75.2 64.4 69% 77 30.05 0.0
05 06:50 SE 6 10.00 Fair CLR 69.8 62.6 78% 30.04 0.0
05 05:50 Calm 10.00 Fair CLR 71.6 62.6 73% 30.03 0.0
05 05:35 Calm 10.00 Fair CLR 71.6 62.6 73% 30.03 0.0
05 05:15 S 6 10.00 Partly Cloudy SCT046 SCT050 71.6 62.6 73% 30.03 0.0
05 04:55 S 3 10.00 Mostly Cloudy BKN045 71.6 62.6 73% 30.02 0.0
05 04:35 S 3 10.00 Mostly Cloudy BKN045 71.6 62.6 73% 30.02 0.0
05 04:15 S 6 10.00 Mostly Cloudy BKN045 71.6 62.6 73% 30.02 0.0
05 03:55 S 5 10.00 Mostly Cloudy BKN041 BKN046 71.6 62.6 73% 30.02 0.0
05 03:35 S 7 10.00 Mostly Cloudy BKN042 71.6 62.6 73% 30.02 0.0
05 03:15 S 6 10.00 Fair CLR 73.4 62.6 69% 30.02 0.0
05 02:55 SE 6 10.00 Fair CLR 73.4 62.6 69% 30.02 0.0
05 02:35 SE 7 10.00 Fair CLR 73.4 62.6 69% 30.02 0.0
05 02:15 SE 6 10.00 Fair CLR 73.4 62.6 69% 30.02 0.0
05 01:55 S 3 10.00 Fair CLR 75.2 62.6 65% 77 30.02 0.0
05 01:35 S 6 10.00 Fair CLR 75.2 62.6 65% 77 30.03 0.0
05 01:15 SW 6 10.00 Fair CLR 77 62.6 61% 79 30.03 0.0
05 00:55 S 9 10.00 A Few Clouds FEW044 77 62.6 61% 79 30.03 0.0
05 00:35 S 13 10.00 Fair CLR 78.8 62.6 58% 80 30.03 0.0
05 00:15 S 12 10.00 Fair CLR 78.8 62.6 58% 80 30.03 0.0
04 23:55 S 15 10.00 Fair CLR 78.8 62.6 58% 80 30.03 0.0
04 23:35 S 14 10.00 Fair CLR 78.8 62.6 58% 80 30.03 0.0
04 23:15 S 15 10.00 A Few Clouds FEW120 80.6 60.8 51% 81 30.02 0.0
04 22:55 S 17 G 29 10.00 A Few Clouds FEW120 80.6 60.8 51% 81 30.03 0.0
04 22:15 S 20 10.00 Partly Cloudy FEW020 FEW034 SCT120 84.2 59 43% 84 30.02 0.0
04 21:55 SE 25 G 32 10.00 Mostly Cloudy and Breezy FEW020 BKN110 86 57.2 38% 85 30.01 0.0
04 21:35 SE 20 G 26 10.00 Overcast OVC110 87.8 57.2 35% 87 30 0.0
04 20:55 S 7 10.00 Fair CLR 87.8 46.4 24% 85 29.98 0.0
04 20:35 SW 6 10.00 Fair CLR 87.8 44.6 22% 85 29.97 0.0
04 19:35 S 7 10.00 Fair CLR 91.4 44.6 20% 88 29.96 0.0
04 19:15 S 12 10.00 Fair CLR 93.2 44.6 19% 89 29.96 0.0
04 18:55 S 12 10.00 Fair CLR 95 44.6 18% 91 29.95 0.0
04 18:35 S 9 G 18 10.00 Fair CLR 96.8 44.6 17% 93 29.95 0.0
04 18:15 S 12 10.00 Fair CLR 96.8 44.6 17% 93 29.94 0.0
04 17:50 SE 10 10.00 Fair CLR 98.6 44.6 16% 95 29.94 0.0
04 16:50 SE 8 10.00 Fair CLR 96.8 46.4 18% 93 29.93 0.0
04 15:50 S 8 10.00 Fair CLR 95 48.2 20% 92 29.94 0.0
04 14:50 S 7 G 20 10.00 Fair CLR 98.6 48.2 18% 95 29.96 0.0
04 13:50 S 6 G 37 10.00 Fair CLR 96.8 50 20% 94 29.98 0.0
04 12:50 S 10 10.00 Fair CLR 96.8 53.6 23% 95 30.01 0.0
04 11:50 SW 10 10.00 Fair CLR 95 53.6 25% 93 30.04 0.0
04 10:50 W 9 10.00 Fair CLR 91.4 53.6 28% 89 30.05 0.0
04 09:50 W 8 10.00 Fair CLR 89.6 55.4 31% 88 30.04 0.0
04 08:50 W 8 10.00 Fair CLR 84.2 55.4 37% 83 30.04 0.0
04 07:50 SW 7 10.00 Fair CLR 80.6 57.2 45% 81 30.04 0.0
04 06:50 SW 7 10.00 Fair CLR 77 55.4 47% 79 30.01 0.0
04 05:50 Calm 10.00 Fair CLR 75.2 53.6 47% 78 30 0.0
04 04:55 E 5 10.00 Fair CLR 73.4 57.2 57% 30 0.0
04 04:35 Calm 10.00 Fair CLR 75.2 57.2 54% 78 29.99 0.0
04 04:15 S 5 10.00 Fair CLR 75.2 57.2 54% 78 29.99 0.0
04 03:55 S 6 10.00 Fair CLR 77 55.4 47% 79 29.98 0.0
04 03:35 SW 6 10.00 Fair CLR 78.8 53.6 42% 79 29.98 0.0
04 03:15 SW 8 10.00 Fair CLR 78.8 53.6 42% 79 29.99 0.0
04 02:55 W 7 10.00 Fair CLR 78.8 53.6 42% 79 29.99 0.0
04 02:35 W 8 G 14 10.00 Partly Cloudy SCT110 80.6 53.6 39% 80 29.99 0.0
04 02:15 W 10 10.00 A Few Clouds FEW100 80.6 53.6 39% 80 29.99 0.0
04 01:55 W 9 G 16 10.00 Fair CLR 80.6 53.6 39% 80 29.98 0.0
04 01:35 SW 9 10.00 A Few Clouds FEW049 80.6 53.6 39% 80 29.98 0.0
04 01:15 SW 10 10.00 Fair CLR 80.6 55.4 42% 81 29.99 0.0
04 00:55 SW 10 10.00 Fair CLR 80.6 55.4 42% 81 29.98 0.0
04 00:35 SW 9 10.00 Fair CLR 80.6 55.4 42% 81 29.99 0.0
04 00:15 SW 7 10.00 Fair CLR 80.6 55.4 42% 81 29.98 0.0
03 23:55 S 6 10.00 Fair CLR 80.6 55.4 42% 81 29.98 0.0
03 23:35 S 9 10.00 Fair CLR 82.4 55.4 40% 82 29.98 0.0
03 23:15 S 13 10.00 Fair CLR 82.4 55.4 40% 82 29.99 0.0
03 22:55 S 7 10.00 Fair CLR 80.6 55.4 42% 81 29.99 0.0
03 21:55 S 5 10.00 Fair CLR 82.4 55.4 40% 82 29.99 0.0
03 21:35 Calm 10.00 Fair CLR 82.4 55.4 40% 82 29.99 0.0
03 21:15 Calm 10.00 Fair CLR 80.6 55.4 42% 81 30 0.0
03 20:55 Calm 10.00 Fair CLR 80.6 55.4 42% 81 29.99 0.0
03 20:35 SW 6 10.00 Fair CLR 82.4 55.4 40% 82 29.98 0.0
03 20:15 S 6 10.00 Fair CLR 82.4 55.4 40% 82 29.98 0.0
03 19:55 S 7 10.00 Mostly Cloudy BKN120 84.2 55.4 37% 83 29.97 0.0
03 19:35 S 5 10.00 Mostly Cloudy BKN120 84.2 57.2 40% 83 29.96 0.0
03 19:15 SE 7 G 13 10.00 A Few Clouds FEW120 86 57.2 38% 85 29.95 0.0
03 18:55 E 12 G 18 10.00 Fair CLR 87.8 53.6 31% 86 29.95 0.0
03 18:35 E 14 G 21 10.00 Fair CLR 87.8 53.6 31% 86 29.94 0.0
03 18:15 E 14 10.00 Fair CLR 91.4 53.6 28% 89 29.94 0.0
03 17:50 E 17 10.00 Mostly Cloudy BKN150 91.4 53.6 28% 89 29.94 0.0
03 16:50 SE 14 10.00 Mostly Cloudy BKN150 91.4 55.4 30% 90 29.93 0.0
03 15:50 S 7 10.00 Mostly Cloudy BKN140 91.4 55.4 30% 90 29.93 0.0
03 14:50 S 7 G 23 10.00 Light Rain FEW040 BKN120 87.8 59 38% 87 29.95 0.0
03 13:50 SE 6 10.00 Mostly Cloudy BKN120 96.8 48.2 19% 93 29.96 0.0
03 12:50 S 6 10.00 Mostly Cloudy BKN100 95 50 22% 92 29.99 0.0
03 11:50 S 6 10.00 A Few Clouds FEW100 98.6 50 19% 95 30.02 0.0
03 10:50 SW 7 10.00 A Few Clouds FEW120 95 51.8 23% 92 30.03 0.0
03 09:50 S 8 10.00 Fair CLR 89.6 55.4 31% 88 30.03 0.0
03 06:50 S 7 10.00 Fair CLR 73.4 53.6 50% 30.02 0.0
03 05:50 S 6 10.00 Fair CLR 73.4 51.8 47% 30.01 0.0
03 05:35 S 7 10.00 Fair CLR 75.2 51.8 44% 78 30.01 0.0
03 04:55 S 10 10.00 A Few Clouds FEW055 77 51.8 42% 78 30.01 0.0
03 04:35 S 10 10.00 A Few Clouds FEW055 75.2 51.8 44% 78 30.01 0.0
03 04:15 S 9 10.00 Fair CLR 75.2 51.8 44% 78 30.01 0.0
03 03:55 S 8 10.00 Fair CLR 75.2 50 41% 78 30.02 0.0
03 03:35 S 9 10.00 A Few Clouds FEW055 77 50 39% 78 30.02 0.0
03 03:15 S 8 10.00 Fair CLR 77 50 39% 78 30.02 0.0
03 02:55 S 8 10.00 Fair CLR 77 50 39% 78 30.02 0.0
03 02:35 S 8 10.00 Fair CLR 78.8 50 37% 79 30.02 0.0
03 02:15 S 9 10.00 Fair CLR 77 50 39% 78 30.02 0.0
03 01:55 S 8 10.00 Fair CLR 77 50 39% 78 30.02 0.0
03 01:35 S 7 10.00 Fair CLR 77 48.2 36% 78 30.03 0.0
02 21:55 SE 6 10.00 Mostly Cloudy BKN100 84.2 51.8 33% 82 30.04 0.0
02 21:35 SE 12 10.00 Mostly Cloudy BKN100 86 51.8 31% 84 30.03 0.0
02 20:55 SE 9 10.00 Mostly Cloudy BKN100 87.8 51.8 29% 85 30.01 0.0
02 20:35 SE 6 10.00 Partly Cloudy SCT100 87.8 51.8 29% 85 30 0.0
02 20:15 SE 8 10.00 Fair CLR 87.8 50 27% 85 30 0.0
02 18:55 S 9 10.00 Fair CLR 93.2 50 23% 90 29.98 0.0
02 18:35 S 7 10.00 Fair CLR 95 50 22% 92 29.98 0.0
02 18:15 S 7 10.00 Fair CLR 95 50 22% 92 29.98 0.0
02 17:50 S 9 10.00 Fair CLR 96.8 50 20% 94 29.98 0.0
02 16:50 SW 7 G 14 10.00 Partly Cloudy SCT100 96.8 50 20% 94 29.98 0.0
02 15:50 S 13 10.00 Partly Cloudy SCT100 98.6 50 19% 95 29.99 0.0
02 14:50 S 6 G 17 10.00 Partly Cloudy SCT100 95 51.8 23% 92 30.01 0.0
Date Time (mdt) Wind (mph) Vis. (mi.) Weather Sky Cond. Air Dwpt Max. Min. Relative Humidity Wind Chill (°F) Heat Index (°F) altimeter (in) sea level (mb) 1 hr 3 hr 6 hr
6 hour
Temperature (ºF) Pressure Precipitation (in)